createdAt,value
2023-03-31T00:00:24.281Z,93.65
2023-03-31T00:02:54.113Z,93.66
2023-03-31T00:05:21.521Z,93.63
2023-03-31T00:07:50.961Z,93.73
2023-03-31T00:10:19.440Z,93.88
2023-03-31T00:12:46.868Z,93.11
2023-03-31T00:15:13.876Z,93.15
2023-03-31T00:17:40.512Z,93.15
2023-03-31T00:20:12.532Z,93.05
2023-03-31T00:22:42.465Z,92.77
2023-03-31T00:25:11.331Z,92.62
2023-03-31T00:27:38.275Z,92.28
2023-03-31T00:30:05.532Z,91.42
2023-03-31T00:32:33.401Z,91.35
2023-03-31T00:35:02.398Z,91.58
2023-03-31T00:37:29.705Z,91.36
2023-03-31T00:39:56.924Z,90.27
2023-03-31T00:42:23.746Z,90.37
2023-03-31T00:45:15.506Z,89.67
2023-03-31T00:47:45.211Z,89.60
2023-03-31T00:50:21.432Z,89.14
2023-03-31T00:52:54.833Z,89.70
2023-03-31T00:55:25.914Z,90.34
2023-03-31T00:57:55.607Z,90.21
2023-03-31T01:00:24.109Z,88.88
2023-03-31T01:02:59.828Z,89.21
2023-03-31T01:05:42.267Z,89.40
2023-03-31T01:08:10.075Z,88.52
2023-03-31T01:10:51.520Z,88.05
2023-03-31T01:13:19.942Z,88.47
2023-03-31T01:15:46.608Z,88.86
2023-03-31T01:18:16.452Z,88.70
2023-03-31T01:21:07.852Z,89.36
2023-03-31T01:24:06.429Z,89.06
2023-03-31T01:26:55.566Z,89.36
2023-03-31T01:29:51.974Z,89.54
2023-03-31T01:32:43.500Z,89.77
2023-03-31T01:35:35.074Z,89.80
2023-03-31T01:38:04.781Z,89.32
2023-03-31T01:40:35.805Z,88.94
2023-03-31T01:43:25.082Z,89.45
2023-03-31T01:46:25.590Z,90.09
2023-03-31T01:48:57.840Z,88.68
2023-03-31T01:51:54.000Z,89.06
2023-03-31T01:54:29.473Z,89.37
2023-03-31T01:57:01.771Z,89.05
2023-03-31T01:59:35.633Z,89.23
2023-03-31T02:02:11.358Z,89.46
2023-03-31T02:04:43.695Z,89.24
2023-03-31T02:07:19.697Z,89.01
2023-03-31T02:09:51.996Z,88.89
2023-03-31T02:12:21.489Z,88.21
2023-03-31T02:14:50.515Z,88.12
2023-03-31T02:17:20.241Z,88.58
2023-03-31T02:19:51.849Z,88.31
2023-03-31T02:22:21.485Z,88.53
2023-03-31T02:24:50.658Z,88.66
2023-03-31T02:27:27.423Z,88.33
2023-03-31T02:29:55.151Z,88.27
2023-03-31T02:32:38.539Z,88.52
2023-03-31T02:35:08.045Z,90.42
2023-03-31T02:37:34.696Z,91.00
2023-03-31T02:40:10.583Z,91.42
2023-03-31T02:42:39.360Z,92.18
2023-03-31T02:45:27.371Z,92.73
2023-03-31T02:47:55.559Z,93.73
2023-03-31T02:50:31.578Z,93.72
2023-03-31T02:53:38.119Z,95.97
2023-03-31T02:56:07.821Z,96.86
2023-03-31T02:58:53.564Z,98.27
2023-03-31T03:01:34.790Z,99.42
2023-03-31T03:04:19.995Z,98.39
2023-03-31T03:07:01.084Z,99.13
2023-03-31T03:09:37.363Z,100.00
2023-03-31T03:12:31.783Z,100.00
2023-03-31T03:15:09.133Z,100.00
2023-03-31T03:17:45.663Z,100.00
2023-03-31T03:20:14.299Z,100.00
2023-03-31T03:22:40.927Z,100.00
2023-03-31T03:25:10.451Z,100.00
2023-03-31T03:27:38.121Z,100.00
2023-03-31T03:30:08.259Z,100.00
2023-03-31T03:32:34.973Z,100.00
2023-03-31T03:35:02.814Z,100.00
2023-03-31T03:37:30.327Z,100.00
2023-03-31T03:39:57.358Z,100.00
2023-03-31T03:42:24.185Z,100.00
2023-03-31T03:44:53.789Z,100.00
2023-03-31T03:47:20.432Z,100.00
2023-03-31T03:49:49.186Z,100.00
2023-03-31T03:52:16.252Z,100.00
2023-03-31T03:54:42.971Z,100.00
2023-03-31T03:57:09.821Z,100.00
2023-03-31T03:59:36.475Z,100.00
2023-03-31T04:02:03.245Z,100.00
2023-03-31T04:04:29.875Z,100.00
2023-03-31T04:06:56.660Z,100.00
2023-03-31T04:09:23.283Z,100.00
2023-03-31T04:11:49.902Z,100.00
2023-03-31T04:14:16.614Z,100.00
2023-03-31T04:16:46.830Z,100.00
2023-03-31T04:19:17.562Z,100.00
2023-03-31T04:21:45.646Z,100.00
2023-03-31T04:24:16.235Z,100.00
2023-03-31T04:26:43.269Z,100.00
2023-03-31T04:29:16.711Z,100.00
2023-03-31T04:31:44.247Z,100.00
2023-03-31T04:34:13.579Z,100.00
2023-03-31T04:36:47.782Z,100.00
2023-03-31T04:39:30.763Z,100.00
2023-03-31T04:42:01.309Z,100.00
2023-03-31T04:44:28.736Z,100.00
2023-03-31T04:46:56.132Z,100.00
2023-03-31T04:49:22.862Z,100.00
2023-03-31T04:51:49.616Z,100.00
2023-03-31T04:54:16.556Z,100.00
2023-03-31T04:56:43.253Z,100.00
2023-03-31T04:59:09.999Z,100.00
2023-03-31T05:01:37.344Z,100.00
2023-03-31T05:04:05.544Z,100.00
2023-03-31T05:06:32.594Z,100.00
2023-03-31T05:08:59.202Z,100.00
2023-03-31T05:11:26.483Z,100.00
2023-03-31T05:13:53.304Z,100.00
2023-03-31T05:16:20.159Z,100.00
2023-03-31T05:18:47.715Z,100.00
2023-03-31T05:21:17.628Z,100.00
2023-03-31T05:23:45.993Z,100.00
2023-03-31T05:26:13.919Z,100.00
2023-03-31T05:28:41.395Z,100.00
2023-03-31T05:31:09.490Z,100.00
2023-03-31T05:33:40.458Z,100.00
2023-03-31T05:36:12.000Z,100.00
2023-03-31T05:38:39.417Z,100.00
2023-03-31T05:41:07.156Z,100.00
2023-03-31T05:43:33.845Z,100.00
2023-03-31T05:46:00.481Z,100.00
2023-03-31T05:48:27.340Z,100.00
2023-03-31T05:51:00.984Z,100.00
2023-03-31T05:53:28.179Z,100.00
2023-03-31T05:56:02.165Z,100.00
2023-03-31T05:58:29.852Z,100.00
2023-03-31T06:01:10.896Z,100.00
2023-03-31T06:03:42.338Z,100.00
2023-03-31T06:06:10.539Z,100.00
2023-03-31T06:08:38.036Z,100.00
2023-03-31T06:11:09.565Z,100.00
2023-03-31T06:13:37.477Z,100.00
2023-03-31T06:16:04.445Z,100.00
2023-03-31T06:18:33.218Z,100.00
2023-03-31T06:20:59.916Z,100.00
2023-03-31T06:23:27.262Z,100.00
2023-03-31T06:25:54.762Z,100.00
2023-03-31T06:28:21.904Z,100.00
2023-03-31T06:30:48.563Z,100.00
2023-03-31T06:33:16.475Z,100.00
2023-03-31T06:35:43.264Z,100.00
2023-03-31T06:38:09.961Z,100.00
2023-03-31T06:40:36.951Z,100.00
2023-03-31T06:43:03.554Z,100.00
2023-03-31T06:45:30.358Z,99.86
2023-03-31T06:47:56.978Z,99.82
2023-03-31T06:50:23.675Z,100.00
2023-03-31T06:52:53.134Z,99.59
2023-03-31T06:55:19.640Z,100.00
2023-03-31T06:57:46.418Z,99.59
2023-03-31T07:00:13.715Z,98.03
2023-03-31T07:02:40.451Z,98.47
2023-03-31T07:05:07.775Z,97.79
2023-03-31T07:07:34.716Z,97.61
2023-03-31T07:10:01.437Z,97.30
2023-03-31T07:12:28.165Z,97.39
2023-03-31T07:14:54.840Z,97.41
2023-03-31T07:17:21.405Z,97.60
2023-03-31T07:19:48.279Z,99.03
2023-03-31T07:22:15.892Z,99.20
2023-03-31T07:24:42.843Z,100.00
2023-03-31T07:27:09.667Z,100.00
2023-03-31T07:29:36.252Z,100.00
2023-03-31T07:32:02.978Z,100.00
2023-03-31T07:34:29.642Z,100.00
2023-03-31T07:36:56.374Z,100.00
2023-03-31T07:39:23.096Z,100.00
2023-03-31T07:41:49.770Z,100.00
2023-03-31T07:44:17.617Z,100.00
2023-03-31T07:46:44.514Z,100.00
2023-03-31T07:49:15.905Z,100.00
2023-03-31T07:51:42.781Z,100.00
2023-03-31T07:54:09.397Z,100.00
2023-03-31T07:56:36.473Z,100.00
2023-03-31T07:59:03.156Z,100.00
2023-03-31T08:01:30.012Z,100.00
2023-03-31T08:03:57.412Z,100.00
2023-03-31T08:06:26.738Z,100.00
2023-03-31T08:08:53.590Z,100.00
2023-03-31T08:11:21.419Z,100.00
2023-03-31T08:13:48.238Z,100.00
2023-03-31T08:16:15.191Z,100.00
2023-03-31T08:18:42.026Z,100.00
2023-03-31T08:21:12.289Z,100.00
2023-03-31T08:23:38.870Z,100.00
2023-03-31T08:26:19.538Z,100.00
2023-03-31T08:28:49.103Z,100.00
2023-03-31T08:31:17.386Z,100.00
2023-03-31T08:33:44.488Z,100.00
2023-03-31T08:36:12.101Z,100.00
2023-03-31T08:38:46.157Z,100.00
2023-03-31T08:41:21.974Z,100.00
2023-03-31T08:43:49.901Z,100.00
2023-03-31T08:46:18.636Z,100.00
2023-03-31T08:48:51.066Z,100.00
2023-03-31T08:51:28.055Z,100.00
2023-03-31T08:54:15.222Z,100.00
2023-03-31T08:56:47.398Z,100.00
2023-03-31T08:59:35.953Z,100.00
2023-03-31T09:02:14.657Z,100.00
2023-03-31T09:04:56.452Z,100.00
2023-03-31T09:07:35.539Z,100.00
2023-03-31T09:10:35.967Z,100.00
2023-03-31T09:13:11.579Z,100.00
2023-03-31T09:15:41.123Z,100.00
2023-03-31T09:18:25.300Z,100.00
2023-03-31T09:20:53.675Z,100.00
2023-03-31T09:23:30.126Z,100.00
2023-03-31T09:25:58.667Z,100.00
2023-03-31T09:28:35.319Z,100.00
2023-03-31T09:31:08.799Z,100.00
2023-03-31T09:33:40.956Z,100.00
2023-03-31T09:36:19.608Z,100.00
2023-03-31T09:38:47.237Z,100.00
2023-03-31T09:41:16.746Z,100.00
2023-03-31T09:43:46.133Z,100.00
2023-03-31T09:46:16.463Z,100.00
2023-03-31T09:48:52.311Z,100.00
2023-03-31T09:51:24.688Z,100.00
2023-03-31T09:54:02.918Z,100.00
2023-03-31T09:56:48.758Z,100.00
2023-03-31T09:59:18.894Z,100.00
2023-03-31T10:01:49.477Z,100.00
2023-03-31T10:04:35.606Z,100.00
2023-03-31T10:07:05.195Z,100.00
2023-03-31T10:09:33.561Z,100.00
2023-03-31T10:12:06.432Z,100.00
2023-03-31T10:14:46.028Z,100.00
2023-03-31T10:17:23.734Z,100.00
2023-03-31T10:20:08.155Z,100.00
2023-03-31T10:22:43.132Z,100.00
2023-03-31T10:25:24.962Z,100.00
2023-03-31T10:27:57.147Z,100.00
2023-03-31T10:30:35.396Z,100.00
2023-03-31T10:33:19.111Z,100.00
2023-03-31T10:35:54.570Z,100.00
2023-03-31T10:38:29.426Z,100.00
2023-03-31T10:40:58.994Z,100.00
2023-03-31T10:43:29.353Z,100.00
2023-03-31T10:45:58.625Z,100.00
2023-03-31T10:48:33.523Z,100.00
2023-03-31T10:51:21.614Z,99.20
2023-03-31T10:53:54.208Z,99.62
2023-03-31T10:56:31.782Z,99.10
2023-03-31T10:59:10.380Z,94.59
2023-03-31T11:01:47.841Z,93.19
2023-03-31T11:04:44.763Z,91.96
2023-03-31T11:07:36.789Z,91.24
2023-03-31T11:10:21.329Z,93.97
2023-03-31T11:13:00.123Z,91.87
2023-03-31T11:15:29.796Z,90.58
2023-03-31T11:18:25.826Z,91.93
2023-03-31T11:20:58.211Z,88.21
2023-03-31T11:23:48.639Z,90.16
2023-03-31T11:26:39.986Z,87.57
2023-03-31T11:29:21.669Z,88.58
2023-03-31T11:32:03.389Z,87.53
2023-03-31T11:34:49.910Z,87.80
2023-03-31T11:37:31.942Z,85.82
2023-03-31T11:39:58.607Z,85.90
2023-03-31T11:42:37.848Z,83.72
2023-03-31T11:45:19.558Z,80.78
2023-03-31T11:47:49.707Z,84.00
2023-03-31T11:50:26.844Z,80.94
2023-03-31T11:53:05.575Z,83.54
2023-03-31T11:55:33.666Z,83.49
2023-03-31T11:58:06.142Z,81.46
2023-03-31T12:00:44.345Z,83.32
2023-03-31T12:03:16.863Z,82.57
2023-03-31T12:05:48.224Z,83.72
2023-03-31T12:08:31.128Z,83.01
2023-03-31T12:11:09.947Z,83.54
2023-03-31T12:13:49.700Z,81.01
2023-03-31T12:16:25.609Z,80.51
2023-03-31T12:19:49.790Z,77.61
2023-03-31T12:22:19.310Z,80.16
2023-03-31T12:24:47.032Z,79.20
2023-03-31T12:27:18.835Z,78.28
2023-03-31T12:30:04.071Z,78.59
2023-03-31T12:32:36.525Z,79.28
2023-03-31T12:35:16.828Z,81.72
2023-03-31T12:38:33.639Z,81.81
2023-03-31T12:41:27.207Z,81.25
2023-03-31T12:44:05.787Z,78.97
2023-03-31T12:47:03.245Z,80.90
2023-03-31T12:49:50.291Z,80.94
2023-03-31T12:52:27.998Z,81.92
2023-03-31T12:54:54.624Z,80.42
2023-03-31T12:57:23.593Z,79.37
2023-03-31T13:00:24.214Z,78.74
2023-03-31T13:03:14.804Z,78.54
2023-03-31T13:05:47.612Z,79.49
2023-03-31T13:08:52.384Z,79.83
2023-03-31T13:11:22.342Z,80.64
2023-03-31T13:14:00.835Z,83.25
2023-03-31T13:16:29.603Z,84.36
2023-03-31T13:18:56.800Z,84.87
2023-03-31T13:21:27.368Z,84.19
2023-03-31T13:24:00.571Z,84.88
2023-03-31T13:26:42.033Z,85.38
2023-03-31T13:29:14.896Z,85.68
2023-03-31T13:32:00.711Z,86.46
2023-03-31T13:34:43.907Z,87.50
2023-03-31T13:37:34.774Z,89.09
2023-03-31T13:40:14.571Z,92.26
2023-03-31T13:42:44.350Z,92.30
2023-03-31T13:45:38.605Z,93.89
2023-03-31T13:48:14.165Z,94.14
2023-03-31T13:51:02.022Z,94.08
2023-03-31T13:53:56.749Z,92.49
2023-03-31T13:56:55.172Z,92.53
2023-03-31T13:59:36.741Z,92.66
2023-03-31T14:02:22.218Z,93.46
2023-03-31T14:04:58.046Z,91.84
2023-03-31T14:07:39.097Z,91.43
2023-03-31T14:10:07.380Z,89.58
2023-03-31T14:12:36.919Z,89.83
2023-03-31T14:15:04.201Z,91.21
2023-03-31T14:17:48.978Z,88.40
2023-03-31T14:20:54.890Z,88.27
2023-03-31T14:23:33.438Z,85.68
2023-03-31T14:26:32.185Z,85.96
2023-03-31T14:29:39.006Z,83.81
2023-03-31T14:32:38.591Z,84.39
2023-03-31T14:35:53.178Z,85.65
2023-03-31T14:38:21.684Z,87.49
2023-03-31T14:40:51.191Z,88.42
2023-03-31T14:43:33.800Z,88.74
2023-03-31T14:46:07.083Z,89.10
2023-03-31T14:48:38.603Z,91.29
2023-03-31T14:51:10.174Z,94.15
2023-03-31T14:53:37.188Z,95.09
2023-03-31T14:56:12.337Z,94.62
2023-03-31T14:58:45.679Z,94.85
2023-03-31T15:01:17.542Z,94.82
2023-03-31T15:03:45.698Z,96.46
2023-03-31T15:06:13.216Z,96.68
2023-03-31T15:08:40.716Z,97.34
2023-03-31T15:11:19.188Z,96.51
2023-03-31T15:14:00.950Z,95.53
2023-03-31T15:16:45.248Z,92.27
2023-03-31T15:19:19.174Z,92.66
2023-03-31T15:21:47.232Z,91.95
2023-03-31T15:24:14.860Z,93.08
2023-03-31T15:26:53.641Z,90.14
2023-03-31T15:29:22.086Z,91.46
2023-03-31T15:31:49.456Z,89.68
2023-03-31T15:34:36.072Z,89.34
2023-03-31T15:37:03.568Z,88.19
2023-03-31T15:39:33.216Z,88.07
2023-03-31T15:42:03.696Z,89.53
2023-03-31T15:44:43.799Z,91.50
2023-03-31T15:47:26.177Z,90.82
2023-03-31T15:50:08.264Z,90.68
2023-03-31T15:52:36.727Z,92.61
2023-03-31T15:55:23.268Z,93.87
2023-03-31T15:57:51.480Z,96.30
2023-03-31T16:00:39.846Z,97.74
2023-03-31T16:03:17.113Z,98.51
2023-03-31T16:06:01.736Z,97.84
2023-03-31T16:08:38.210Z,98.09
2023-03-31T16:11:13.519Z,98.23
2023-03-31T16:13:43.686Z,96.06
2023-03-31T16:16:15.192Z,97.53
2023-03-31T16:18:51.495Z,96.61
2023-03-31T16:21:28.711Z,97.50
2023-03-31T16:23:58.705Z,97.73
2023-03-31T16:26:27.914Z,98.39
2023-03-31T16:28:57.554Z,97.43
2023-03-31T16:31:31.247Z,97.62
2023-03-31T16:33:57.950Z,98.17
2023-03-31T16:36:24.662Z,97.79
2023-03-31T16:38:55.528Z,97.68
2023-03-31T16:41:27.187Z,98.29
2023-03-31T16:43:54.825Z,97.81
2023-03-31T16:46:23.038Z,98.28
2023-03-31T16:48:50.479Z,97.84
2023-03-31T16:51:17.807Z,97.30
2023-03-31T16:53:45.223Z,96.61
2023-03-31T16:56:12.056Z,97.29
2023-03-31T16:58:39.003Z,96.74
2023-03-31T17:01:07.448Z,98.50
2023-03-31T17:03:35.045Z,99.83
2023-03-31T17:06:07.748Z,100.00
2023-03-31T17:08:34.364Z,100.00
2023-03-31T17:11:03.996Z,100.00
2023-03-31T17:13:32.537Z,100.00
2023-03-31T17:16:15.315Z,100.00
2023-03-31T17:18:44.820Z,100.00
2023-03-31T17:21:13.867Z,100.00
2023-03-31T17:23:41.215Z,100.00
2023-03-31T17:26:15.465Z,100.00
2023-03-31T17:28:42.658Z,100.00
2023-03-31T17:31:18.105Z,100.00
2023-03-31T17:33:45.150Z,100.00
2023-03-31T17:36:12.222Z,100.00
2023-03-31T17:38:39.916Z,100.00
2023-03-31T17:41:09.571Z,100.00
2023-03-31T17:43:36.288Z,100.00
2023-03-31T17:46:11.031Z,100.00
2023-03-31T17:48:39.242Z,100.00
2023-03-31T17:51:17.814Z,100.00
2023-03-31T17:53:46.161Z,100.00
2023-03-31T17:56:13.955Z,100.00
2023-03-31T17:58:41.668Z,100.00
2023-03-31T18:01:09.647Z,100.00
2023-03-31T18:03:36.709Z,100.00
2023-03-31T18:06:12.586Z,100.00
2023-03-31T18:08:40.810Z,100.00
2023-03-31T18:11:08.729Z,100.00
2023-03-31T18:13:39.291Z,100.00
2023-03-31T18:16:09.681Z,100.00
2023-03-31T18:18:37.907Z,100.00
2023-03-31T18:21:06.561Z,100.00
2023-03-31T18:23:34.885Z,100.00
2023-03-31T18:26:02.618Z,100.00
2023-03-31T18:28:29.451Z,100.00
2023-03-31T18:30:56.453Z,100.00
2023-03-31T18:33:23.509Z,100.00
2023-03-31T18:35:50.386Z,100.00
2023-03-31T18:38:18.592Z,100.00
2023-03-31T18:40:50.231Z,100.00
2023-03-31T18:43:22.518Z,100.00
2023-03-31T18:45:54.660Z,100.00
2023-03-31T18:48:22.348Z,100.00
2023-03-31T18:50:51.829Z,100.00
2023-03-31T18:53:19.303Z,100.00
2023-03-31T18:55:53.978Z,100.00
2023-03-31T18:58:21.021Z,100.00
2023-03-31T19:00:47.939Z,100.00
2023-03-31T19:03:15.038Z,100.00
2023-03-31T19:05:42.479Z,100.00
2023-03-31T19:08:09.379Z,100.00
2023-03-31T19:10:38.204Z,100.00
2023-03-31T19:13:05.103Z,100.00
2023-03-31T19:15:32.164Z,100.00
2023-03-31T19:17:59.165Z,100.00
2023-03-31T19:20:26.281Z,100.00
2023-03-31T19:22:53.438Z,100.00
2023-03-31T19:25:20.829Z,100.00
2023-03-31T19:27:48.024Z,100.00
2023-03-31T19:30:20.618Z,100.00
2023-03-31T19:32:52.169Z,100.00
2023-03-31T19:35:20.160Z,100.00
2023-03-31T19:37:48.870Z,100.00
2023-03-31T19:40:15.943Z,100.00
2023-03-31T19:42:44.499Z,100.00
2023-03-31T19:45:11.578Z,100.00
2023-03-31T19:47:38.666Z,100.00
2023-03-31T19:50:07.392Z,100.00
2023-03-31T19:52:34.806Z,100.00
2023-03-31T19:55:01.565Z,100.00
2023-03-31T19:57:29.108Z,100.00
2023-03-31T19:59:56.074Z,100.00
2023-03-31T20:02:23.837Z,100.00
2023-03-31T20:04:51.744Z,100.00
2023-03-31T20:07:19.011Z,100.00
2023-03-31T20:09:46.188Z,100.00
2023-03-31T20:12:13.159Z,100.00
2023-03-31T20:14:39.874Z,100.00
2023-03-31T20:17:07.589Z,100.00
2023-03-31T20:19:35.141Z,100.00
2023-03-31T20:22:02.152Z,100.00
2023-03-31T20:24:29.503Z,100.00
2023-03-31T20:26:56.198Z,100.00
2023-03-31T20:29:24.160Z,100.00
2023-03-31T20:31:51.207Z,100.00
2023-03-31T20:34:19.308Z,100.00
2023-03-31T20:36:49.310Z,100.00
2023-03-31T20:39:16.321Z,100.00
2023-03-31T20:41:43.477Z,100.00
2023-03-31T20:44:15.146Z,100.00
2023-03-31T20:46:43.617Z,100.00
2023-03-31T20:49:10.937Z,100.00
2023-03-31T20:51:38.694Z,100.00
2023-03-31T20:54:07.013Z,100.00
2023-03-31T20:56:39.448Z,100.00
2023-03-31T20:59:08.221Z,100.00
2023-03-31T21:01:36.540Z,100.00
2023-03-31T21:04:06.029Z,100.00
2023-03-31T21:06:41.860Z,100.00
2023-03-31T21:09:09.380Z,100.00
2023-03-31T21:11:36.108Z,100.00
2023-03-31T21:14:03.294Z,100.00
2023-03-31T21:16:29.921Z,100.00
2023-03-31T21:18:57.125Z,100.00
2023-03-31T21:21:24.996Z,100.00
2023-03-31T21:23:51.855Z,100.00
2023-03-31T21:26:18.876Z,100.00
2023-03-31T21:28:46.074Z,100.00
2023-03-31T21:31:17.107Z,100.00
2023-03-31T21:33:46.071Z,100.00
2023-03-31T21:36:15.329Z,100.00
2023-03-31T21:38:42.972Z,100.00
2023-03-31T21:41:15.754Z,100.00
2023-03-31T21:43:42.526Z,100.00
2023-03-31T21:46:09.572Z,100.00
2023-03-31T21:48:36.267Z,100.00
2023-03-31T21:51:03.682Z,100.00
2023-03-31T21:53:31.387Z,100.00
2023-03-31T21:55:58.297Z,100.00
2023-03-31T21:58:28.548Z,100.00
2023-03-31T22:00:57.438Z,100.00
2023-03-31T22:03:28.505Z,100.00
2023-03-31T22:05:56.681Z,100.00
2023-03-31T22:08:23.555Z,100.00
2023-03-31T22:10:52.150Z,100.00
2023-03-31T22:13:20.022Z,100.00
2023-03-31T22:15:49.645Z,100.00
2023-03-31T22:18:19.542Z,100.00
2023-03-31T22:20:46.930Z,100.00
2023-03-31T22:23:13.714Z,100.00
2023-03-31T22:25:40.830Z,100.00
2023-03-31T22:28:09.007Z,100.00
2023-03-31T22:30:36.878Z,100.00
2023-03-31T22:33:04.140Z,100.00
2023-03-31T22:35:31.358Z,100.00
2023-03-31T22:37:58.440Z,100.00
2023-03-31T22:40:25.086Z,100.00
2023-03-31T22:42:54.694Z,100.00
2023-03-31T22:45:21.516Z,100.00
2023-03-31T22:47:48.167Z,100.00
2023-03-31T22:50:15.009Z,100.00
2023-03-31T22:52:41.657Z,100.00
2023-03-31T22:55:08.634Z,100.00
2023-03-31T22:57:35.532Z,100.00
2023-03-31T23:00:03.530Z,100.00
2023-03-31T23:02:30.168Z,100.00
2023-03-31T23:04:56.835Z,100.00
2023-03-31T23:07:23.633Z,100.00
2023-03-31T23:09:50.593Z,100.00
2023-03-31T23:12:17.187Z,100.00
2023-03-31T23:14:43.855Z,100.00
2023-03-31T23:17:10.742Z,100.00
2023-03-31T23:19:38.845Z,100.00
2023-03-31T23:22:06.084Z,100.00
2023-03-31T23:24:33.123Z,100.00
2023-03-31T23:26:59.818Z,100.00
2023-03-31T23:29:27.416Z,100.00
2023-03-31T23:31:54.254Z,100.00
2023-03-31T23:34:20.955Z,100.00
2023-03-31T23:36:47.684Z,100.00
2023-03-31T23:39:14.486Z,100.00
2023-03-31T23:41:41.184Z,100.00
2023-03-31T23:44:07.839Z,100.00
2023-03-31T23:46:34.701Z,100.00
2023-03-31T23:49:02.915Z,100.00
2023-03-31T23:51:29.750Z,100.00
2023-03-31T23:53:56.543Z,100.00
2023-03-31T23:56:23.488Z,100.00
2023-03-31T23:58:50.171Z,100.00
